createdAt,value
2023-03-27T00:02:25.367Z,3.40
2023-03-27T00:04:54.331Z,5.37
2023-03-27T00:07:22.457Z,3.20
2023-03-27T00:09:49.985Z,5.23
2023-03-27T00:12:17.454Z,3.87
2023-03-27T00:14:45.728Z,3.10
2023-03-27T00:17:13.464Z,4.43
2023-03-27T00:19:42.276Z,5.03
2023-03-27T00:22:10.781Z,5.73
2023-03-27T00:24:38.229Z,6.67
2023-03-27T00:27:06.555Z,6.03
2023-03-27T00:29:34.605Z,4.87
2023-03-27T00:32:02.008Z,5.07
2023-03-27T00:34:30.252Z,4.30
2023-03-27T00:36:59.459Z,5.27
2023-03-27T00:39:27.771Z,5.20
2023-03-27T00:41:56.331Z,5.83
2023-03-27T00:44:26.791Z,5.03
2023-03-27T00:46:57.035Z,4.90
2023-03-27T00:49:26.489Z,5.03
2023-03-27T00:51:54.923Z,2.53
2023-03-27T00:54:29.904Z,3.40
2023-03-27T00:57:01.182Z,4.43
2023-03-27T00:59:34.546Z,4.70
2023-03-27T01:02:02.935Z,4.83
2023-03-27T01:04:31.912Z,6.83
2023-03-27T01:07:00.755Z,4.40
2023-03-27T01:09:29.724Z,6.00
2023-03-27T01:12:10.180Z,4.53
2023-03-27T01:14:43.941Z,3.90
2023-03-27T01:17:26.818Z,3.63
2023-03-27T01:20:27.606Z,4.40
2023-03-27T01:23:35.887Z,5.63
2023-03-27T01:26:59.735Z,3.77
2023-03-27T01:29:55.104Z,3.57
2023-03-27T01:32:45.953Z,5.67
2023-03-27T01:35:47.933Z,5.33
2023-03-27T01:38:48.012Z,4.90
2023-03-27T01:41:25.889Z,3.07
2023-03-27T01:43:58.431Z,5.17
2023-03-27T01:46:32.534Z,4.43
2023-03-27T01:49:05.942Z,2.93
2023-03-27T01:51:37.363Z,6.37
2023-03-27T01:54:11.118Z,4.17
2023-03-27T01:56:51.590Z,4.70
2023-03-27T01:59:22.021Z,3.57
2023-03-27T02:01:54.391Z,5.17
2023-03-27T02:04:27.488Z,3.40
2023-03-27T02:06:58.968Z,5.67
2023-03-27T02:09:33.395Z,3.60
2023-03-27T02:12:07.320Z,6.03
2023-03-27T02:14:39.448Z,4.97
2023-03-27T02:17:13.705Z,3.97
2023-03-27T02:19:47.374Z,4.57
2023-03-27T02:22:15.234Z,4.10
2023-03-27T02:24:43.557Z,2.33
2023-03-27T02:27:22.141Z,4.27
2023-03-27T02:29:57.327Z,5.43
2023-03-27T02:32:38.213Z,4.03
2023-03-27T02:35:29.515Z,4.77
2023-03-27T02:38:08.213Z,5.53
2023-03-27T02:40:46.244Z,3.87
2023-03-27T02:43:20.514Z,7.03
2023-03-27T02:45:56.469Z,6.63
2023-03-27T02:48:29.920Z,9.00
2023-03-27T02:51:02.814Z,7.13
2023-03-27T02:53:36.692Z,5.67
2023-03-27T02:56:07.977Z,8.70
2023-03-27T02:58:43.054Z,3.63
2023-03-27T03:01:13.749Z,4.13
2023-03-27T03:03:45.038Z,9.93
2023-03-27T03:06:14.170Z,5.37
2023-03-27T03:08:42.618Z,5.53
2023-03-27T03:11:11.735Z,5.00
2023-03-27T03:13:41.880Z,5.73
2023-03-27T03:16:10.968Z,7.70
2023-03-27T03:18:38.563Z,4.77
2023-03-27T03:21:06.510Z,4.03
2023-03-27T03:23:34.004Z,4.27
2023-03-27T03:26:01.481Z,7.00
2023-03-27T03:28:28.928Z,3.30
2023-03-27T03:30:58.883Z,3.97
2023-03-27T03:33:27.849Z,4.30
2023-03-27T03:35:58.827Z,4.40
2023-03-27T03:38:26.632Z,4.43
2023-03-27T03:40:55.045Z,4.57
2023-03-27T03:43:23.210Z,2.63
2023-03-27T03:45:51.088Z,5.10
2023-03-27T03:48:20.795Z,5.83
2023-03-27T03:50:49.701Z,3.97
2023-03-27T03:53:19.216Z,5.60
2023-03-27T03:55:50.169Z,3.90
2023-03-27T03:58:17.748Z,6.30
2023-03-27T04:00:46.979Z,7.40
2023-03-27T04:03:15.670Z,3.63
2023-03-27T04:05:45.635Z,5.53
2023-03-27T04:08:13.456Z,4.07
2023-03-27T04:10:41.369Z,3.90
2023-03-27T04:13:09.115Z,4.90
2023-03-27T04:15:37.424Z,2.30
2023-03-27T04:18:05.615Z,6.33
2023-03-27T04:20:34.839Z,3.73
2023-03-27T04:23:03.713Z,3.33
2023-03-27T04:25:32.068Z,4.90
2023-03-27T04:28:02.163Z,4.90
2023-03-27T04:30:29.792Z,5.83
2023-03-27T04:32:59.956Z,6.40
2023-03-27T04:35:27.797Z,5.07
2023-03-27T04:37:55.298Z,3.90
2023-03-27T04:40:25.490Z,3.83
2023-03-27T04:42:55.728Z,4.00
2023-03-27T04:45:25.585Z,4.53
2023-03-27T04:47:54.352Z,4.10
2023-03-27T04:50:22.004Z,2.83
2023-03-27T04:52:50.537Z,4.20
2023-03-27T04:55:19.548Z,4.83
2023-03-27T04:57:48.865Z,2.60
2023-03-27T05:00:19.093Z,3.20
2023-03-27T05:02:47.660Z,3.60
2023-03-27T05:05:16.854Z,4.67
2023-03-27T05:07:46.476Z,5.13
2023-03-27T05:10:15.610Z,3.77
2023-03-27T05:12:44.280Z,5.77
2023-03-27T05:15:13.858Z,5.30
2023-03-27T05:17:43.190Z,4.70
2023-03-27T05:20:14.366Z,3.93
2023-03-27T05:22:42.690Z,3.27
2023-03-27T05:25:12.098Z,4.40
2023-03-27T05:27:40.054Z,5.80
2023-03-27T05:30:08.943Z,3.93
2023-03-27T05:32:38.115Z,8.07
2023-03-27T05:35:06.437Z,3.53
2023-03-27T05:37:33.849Z,4.87
2023-03-27T05:40:01.293Z,3.80
2023-03-27T05:42:28.732Z,6.63
2023-03-27T05:44:56.183Z,3.80
2023-03-27T05:47:23.661Z,3.80
2023-03-27T05:49:52.446Z,4.40
2023-03-27T05:52:19.966Z,4.40
2023-03-27T05:54:47.409Z,3.77
2023-03-27T05:57:14.906Z,3.93
2023-03-27T05:59:42.461Z,4.47
2023-03-27T06:02:11.430Z,4.40
2023-03-27T06:04:39.057Z,4.60
2023-03-27T06:07:07.843Z,4.97
2023-03-27T06:09:36.181Z,5.57
2023-03-27T06:12:03.710Z,10.60
2023-03-27T06:14:31.112Z,7.80
2023-03-27T06:16:58.549Z,6.17
2023-03-27T06:19:26.056Z,3.80
2023-03-27T06:21:53.492Z,4.47
2023-03-27T06:24:22.412Z,4.37
2023-03-27T06:26:50.518Z,4.57
2023-03-27T06:29:18.190Z,4.63
2023-03-27T06:31:45.708Z,4.13
2023-03-27T06:34:14.869Z,5.57
2023-03-27T06:36:42.338Z,5.07
2023-03-27T06:39:10.047Z,5.37
2023-03-27T06:41:38.809Z,6.10
2023-03-27T06:44:06.470Z,6.07
2023-03-27T06:46:44.597Z,4.07
2023-03-27T06:49:12.789Z,7.30
2023-03-27T06:51:40.288Z,3.17
2023-03-27T06:54:07.709Z,4.03
2023-03-27T06:56:35.282Z,4.07
2023-03-27T06:59:04.307Z,5.47
2023-03-27T07:01:32.257Z,4.73
2023-03-27T07:03:59.696Z,4.23
2023-03-27T07:06:27.171Z,5.90
2023-03-27T07:08:54.643Z,4.50
2023-03-27T07:11:22.094Z,6.07
2023-03-27T07:13:49.508Z,3.97
2023-03-27T07:16:18.694Z,3.93
2023-03-27T07:18:46.145Z,3.13
2023-03-27T07:21:15.200Z,5.60
2023-03-27T07:23:42.817Z,5.23
2023-03-27T07:26:10.229Z,4.70
2023-03-27T07:28:38.472Z,4.43
2023-03-27T07:31:16.776Z,4.80
2023-03-27T07:33:58.551Z,4.40
2023-03-27T07:36:26.508Z,4.27
2023-03-27T07:38:53.957Z,5.90
2023-03-27T07:41:22.416Z,9.30
2023-03-27T07:43:49.905Z,5.43
2023-03-27T07:46:17.406Z,6.63
2023-03-27T07:48:45.281Z,5.70
2023-03-27T07:51:14.529Z,3.77
2023-03-27T07:53:43.447Z,5.20
2023-03-27T07:56:11.664Z,5.17
2023-03-27T07:58:39.190Z,4.73
2023-03-27T08:01:07.643Z,3.70
2023-03-27T08:03:35.210Z,4.07
2023-03-27T08:06:02.787Z,4.50
2023-03-27T08:08:31.681Z,4.63
2023-03-27T08:11:00.819Z,5.87
2023-03-27T08:13:28.396Z,3.90
2023-03-27T08:16:03.607Z,3.27
2023-03-27T08:18:31.100Z,3.07
2023-03-27T08:20:59.048Z,3.93
2023-03-27T08:23:27.134Z,2.87
2023-03-27T08:26:00.328Z,4.77
2023-03-27T08:28:28.743Z,3.53
2023-03-27T08:31:02.729Z,3.83
2023-03-27T08:33:30.702Z,4.53
2023-03-27T08:35:58.283Z,5.43
2023-03-27T08:38:29.157Z,3.67
2023-03-27T08:40:59.914Z,2.47
2023-03-27T08:43:29.746Z,4.23
2023-03-27T08:46:00.877Z,5.27
2023-03-27T08:48:33.390Z,3.10
2023-03-27T08:51:04.435Z,3.87
2023-03-27T08:53:38.112Z,4.57
2023-03-27T08:56:09.042Z,4.70
2023-03-27T08:58:37.946Z,3.07
2023-03-27T09:01:12.344Z,3.83
2023-03-27T09:03:46.341Z,3.10
2023-03-27T09:06:23.588Z,3.40
2023-03-27T09:08:58.086Z,4.90
2023-03-27T09:11:38.159Z,2.60
2023-03-27T09:14:13.780Z,3.87
2023-03-27T09:16:49.204Z,3.63
2023-03-27T09:19:23.418Z,5.07
2023-03-27T09:21:57.752Z,4.63
2023-03-27T09:24:30.300Z,3.10
2023-03-27T09:27:07.168Z,2.93
2023-03-27T09:29:40.331Z,3.37
2023-03-27T09:32:14.773Z,3.10
2023-03-27T09:34:42.859Z,4.50
2023-03-27T09:37:12.826Z,3.20
2023-03-27T09:39:43.650Z,2.40
2023-03-27T09:42:17.209Z,2.53
2023-03-27T09:44:50.167Z,4.40
2023-03-27T09:47:23.058Z,2.30
2023-03-27T09:49:56.497Z,2.83
2023-03-27T09:52:36.129Z,2.43
2023-03-27T09:55:05.355Z,3.57
2023-03-27T09:57:37.387Z,2.77
2023-03-27T10:00:14.564Z,2.57
2023-03-27T10:02:42.153Z,2.40
2023-03-27T10:05:17.857Z,2.13
2023-03-27T10:07:45.983Z,2.03
2023-03-27T10:10:17.375Z,3.10
2023-03-27T10:12:50.932Z,2.73
2023-03-27T10:15:32.509Z,2.30
2023-03-27T10:18:01.539Z,2.60
2023-03-27T10:20:29.207Z,2.67
2023-03-27T10:23:00.423Z,2.23
2023-03-27T10:25:32.094Z,1.73
2023-03-27T10:28:17.873Z,1.20
2023-03-27T10:30:45.940Z,4.63
2023-03-27T10:33:13.446Z,1.60
2023-03-27T10:35:44.557Z,2.07
2023-03-27T10:38:15.053Z,2.47
2023-03-27T10:40:48.465Z,1.63
2023-03-27T10:43:26.936Z,2.23
2023-03-27T10:45:59.076Z,2.37
2023-03-27T10:48:43.386Z,1.50
2023-03-27T10:51:33.160Z,1.70
2023-03-27T10:54:16.099Z,2.10
2023-03-27T10:56:53.487Z,1.80
2023-03-27T10:59:40.634Z,3.30
2023-03-27T11:02:15.920Z,2.30
2023-03-27T11:04:49.003Z,0.80
2023-03-27T11:07:23.233Z,2.40
2023-03-27T11:09:58.734Z,1.23
2023-03-27T11:12:30.821Z,1.60
2023-03-27T11:15:04.730Z,1.30
2023-03-27T11:17:40.484Z,2.03
2023-03-27T11:20:18.100Z,2.37
2023-03-27T11:22:49.026Z,2.33
2023-03-27T11:25:21.798Z,1.08
2023-03-27T11:27:58.604Z,1.45
2023-03-27T11:30:35.401Z,1.33
2023-03-27T11:33:15.202Z,1.90
2023-03-27T11:35:50.109Z,2.58
2023-03-27T11:38:24.581Z,3.10
2023-03-27T11:40:52.344Z,1.55
2023-03-27T11:43:21.137Z,1.42
2023-03-27T11:45:55.833Z,2.53
2023-03-27T11:48:40.885Z,0.98
2023-03-27T11:51:18.686Z,1.08
2023-03-27T11:54:15.647Z,1.60
2023-03-27T11:56:52.627Z,0.98
2023-03-27T11:59:40.145Z,1.15
2023-03-27T12:02:28.866Z,1.08
2023-03-27T12:05:00.575Z,1.40
2023-03-27T12:07:47.619Z,1.95
2023-03-27T12:10:35.215Z,2.05
2023-03-27T12:13:41.276Z,1.17
2023-03-27T12:16:26.611Z,1.40
2023-03-27T12:19:13.801Z,1.42
2023-03-27T12:22:00.640Z,2.92
2023-03-27T12:24:57.157Z,1.02
2023-03-27T12:27:37.918Z,3.10
2023-03-27T12:30:19.695Z,2.75
2023-03-27T12:33:07.361Z,1.33
2023-03-27T12:35:42.236Z,1.10
2023-03-27T12:38:20.707Z,1.80
2023-03-27T12:41:00.233Z,2.55
2023-03-27T12:43:31.539Z,1.20
2023-03-27T12:46:11.990Z,1.08
2023-03-27T12:48:56.533Z,2.35
2023-03-27T12:51:44.114Z,0.95
2023-03-27T12:54:26.711Z,1.27
2023-03-27T12:57:05.187Z,0.70
2023-03-27T12:59:36.543Z,1.50
2023-03-27T13:02:33.336Z,1.30
2023-03-27T13:05:28.279Z,1.17
2023-03-27T13:08:15.306Z,1.58
2023-03-27T13:10:53.151Z,1.50
2023-03-27T13:13:51.937Z,1.40
2023-03-27T13:16:27.862Z,1.00
2023-03-27T13:19:24.027Z,1.88
2023-03-27T13:22:10.611Z,1.42
2023-03-27T13:24:58.802Z,1.48
2023-03-27T13:27:41.763Z,1.45
2023-03-27T13:30:41.871Z,1.42
2023-03-27T13:33:12.998Z,0.90
2023-03-27T13:35:42.744Z,2.33
2023-03-27T13:38:13.468Z,1.48
2023-03-27T13:40:44.698Z,2.00
2023-03-27T13:43:21.599Z,1.23
2023-03-27T13:45:52.510Z,5.38
2023-03-27T13:48:42.968Z,1.25
2023-03-27T13:51:50.211Z,1.15
2023-03-27T13:54:35.130Z,1.67
2023-03-27T13:57:17.729Z,0.70
2023-03-27T14:00:06.252Z,0.90
2023-03-27T14:02:55.158Z,0.93
2023-03-27T14:05:39.516Z,1.02
2023-03-27T14:08:22.637Z,1.23
2023-03-27T14:11:11.758Z,1.67
2023-03-27T14:13:54.706Z,0.80
2023-03-27T14:16:44.943Z,1.35
2023-03-27T14:19:44.417Z,1.75
2023-03-27T14:22:18.434Z,0.75
2023-03-27T14:24:48.908Z,1.63
2023-03-27T14:27:19.470Z,1.07
2023-03-27T14:29:49.551Z,1.13
2023-03-27T14:32:18.491Z,1.00
2023-03-27T14:34:54.026Z,0.50
2023-03-27T14:37:29.929Z,0.97
2023-03-27T14:39:58.964Z,2.47
2023-03-27T14:42:32.047Z,1.10
2023-03-27T14:45:20.258Z,0.93
2023-03-27T14:47:50.549Z,1.23
2023-03-27T14:50:18.720Z,0.68
2023-03-27T14:52:46.277Z,1.13
2023-03-27T14:55:17.989Z,1.17
2023-03-27T14:57:45.937Z,1.38
2023-03-27T15:00:20.845Z,1.45
2023-03-27T15:02:52.073Z,2.60
2023-03-27T15:05:22.999Z,1.48
2023-03-27T15:07:51.008Z,1.50
2023-03-27T15:10:23.962Z,1.98
2023-03-27T15:12:51.823Z,1.90
2023-03-27T15:15:34.457Z,1.30
2023-03-27T15:18:05.343Z,1.27
2023-03-27T15:20:36.880Z,1.65
2023-03-27T15:23:12.037Z,2.05
2023-03-27T15:25:44.476Z,1.35
2023-03-27T15:28:18.862Z,1.70
2023-03-27T15:30:51.974Z,1.02
2023-03-27T15:33:23.073Z,0.95
2023-03-27T15:35:54.146Z,2.58
2023-03-27T15:38:28.659Z,3.05
2023-03-27T15:41:02.033Z,2.60
2023-03-27T15:43:30.814Z,0.90
2023-03-27T15:46:13.321Z,0.95
2023-03-27T15:48:44.043Z,1.48
2023-03-27T15:51:12.984Z,0.60
2023-03-27T15:53:42.488Z,0.80
2023-03-27T15:56:21.580Z,0.80
2023-03-27T15:58:52.905Z,0.80
2023-03-27T16:01:24.410Z,0.93
2023-03-27T16:03:53.205Z,0.50
2023-03-27T16:06:30.557Z,0.77
2023-03-27T16:08:58.986Z,0.90
2023-03-27T16:11:42.656Z,1.40
2023-03-27T16:14:28.411Z,1.20
2023-03-27T16:17:11.137Z,1.10
2023-03-27T16:19:49.599Z,1.70
2023-03-27T16:22:20.260Z,1.30
2023-03-27T16:24:47.768Z,1.50
2023-03-27T16:27:15.401Z,2.43
2023-03-27T16:29:43.009Z,1.93
2023-03-27T16:32:13.904Z,0.77
2023-03-27T16:34:41.640Z,0.73
2023-03-27T16:37:09.141Z,0.90
2023-03-27T16:39:36.649Z,1.17
2023-03-27T16:42:04.482Z,0.90
2023-03-27T16:44:31.885Z,0.60
2023-03-27T16:46:59.400Z,0.93
2023-03-27T16:49:28.233Z,1.30
2023-03-27T16:51:55.740Z,1.73
2023-03-27T16:54:23.149Z,0.83
2023-03-27T16:56:52.268Z,1.83
2023-03-27T16:59:20.274Z,0.80
2023-03-27T17:01:47.730Z,1.00
2023-03-27T17:04:15.357Z,1.10
2023-03-27T17:06:44.122Z,1.07
2023-03-27T17:09:12.457Z,0.87
2023-03-27T17:11:40.479Z,1.10
2023-03-27T17:14:08.119Z,1.00
2023-03-27T17:16:35.710Z,1.33
2023-03-27T17:19:03.212Z,2.50
2023-03-27T17:21:30.702Z,1.03
2023-03-27T17:24:00.493Z,1.50
2023-03-27T17:26:30.114Z,1.40
2023-03-27T17:28:58.542Z,2.70
2023-03-27T17:31:28.845Z,1.40
2023-03-27T17:33:58.203Z,1.17
2023-03-27T17:36:39.736Z,1.33
2023-03-27T17:39:10.266Z,0.70
2023-03-27T17:41:37.789Z,1.53
2023-03-27T17:44:07.812Z,0.80
2023-03-27T17:46:35.979Z,2.07
2023-03-27T17:49:03.463Z,1.20
2023-03-27T17:51:31.120Z,0.83
2023-03-27T17:53:58.588Z,0.90
2023-03-27T17:56:27.402Z,0.43
2023-03-27T17:58:56.128Z,1.33
2023-03-27T18:01:25.203Z,2.07
2023-03-27T18:03:52.855Z,0.80
2023-03-27T18:06:20.661Z,0.87
2023-03-27T18:08:48.135Z,1.33
2023-03-27T18:11:16.969Z,1.23
2023-03-27T18:13:51.160Z,0.63
2023-03-27T18:16:19.482Z,1.27
2023-03-27T18:18:47.678Z,1.20
2023-03-27T18:21:16.419Z,1.30
2023-03-27T18:23:46.436Z,0.80
2023-03-27T18:26:15.120Z,0.90
2023-03-27T18:28:42.533Z,1.20
2023-03-27T18:31:13.272Z,0.70
2023-03-27T18:33:40.801Z,1.20
2023-03-27T18:36:10.808Z,1.60
2023-03-27T18:38:39.909Z,1.73
2023-03-27T18:41:07.434Z,1.17
2023-03-27T18:43:35.236Z,1.30
2023-03-27T18:46:04.458Z,1.23
2023-03-27T18:48:34.076Z,1.20
2023-03-27T18:51:03.434Z,1.27
2023-03-27T18:53:31.718Z,0.93
2023-03-27T18:55:59.857Z,1.60
2023-03-27T18:58:29.176Z,1.07
2023-03-27T19:00:57.306Z,1.97
2023-03-27T19:03:30.076Z,1.77
2023-03-27T19:06:02.029Z,1.50
2023-03-27T19:08:29.701Z,1.43
2023-03-27T19:10:57.684Z,1.07
2023-03-27T19:13:26.513Z,1.30
2023-03-27T19:15:54.206Z,1.17
2023-03-27T19:18:21.809Z,1.57
2023-03-27T19:20:49.239Z,1.37
2023-03-27T19:23:18.180Z,1.90
2023-03-27T19:25:47.764Z,1.67
2023-03-27T19:28:15.864Z,1.30
2023-03-27T19:30:43.476Z,2.13
2023-03-27T19:33:12.151Z,1.37
2023-03-27T19:35:39.698Z,3.17
2023-03-27T19:38:07.194Z,1.57
2023-03-27T19:40:35.980Z,1.70
2023-03-27T19:43:03.635Z,2.80
2023-03-27T19:45:31.067Z,1.83
2023-03-27T19:47:58.547Z,2.33
2023-03-27T19:50:26.930Z,2.83
2023-03-27T19:53:05.839Z,3.20
2023-03-27T19:55:37.585Z,3.47
2023-03-27T19:58:05.079Z,1.57
2023-03-27T20:00:32.955Z,3.13
2023-03-27T20:03:00.534Z,1.60
2023-03-27T20:05:29.485Z,3.30
2023-03-27T20:07:57.095Z,1.83
2023-03-27T20:10:26.916Z,2.80
2023-03-27T20:12:55.666Z,1.73
2023-03-27T20:15:23.237Z,2.30
2023-03-27T20:17:50.690Z,1.77
2023-03-27T20:20:18.595Z,2.87
2023-03-27T20:22:57.130Z,2.07
2023-03-27T20:25:27.924Z,3.00
2023-03-27T20:27:57.144Z,1.40
2023-03-27T20:30:25.271Z,2.37
2023-03-27T20:32:52.882Z,1.90
2023-03-27T20:35:24.817Z,3.00
2023-03-27T20:37:57.308Z,1.37
2023-03-27T20:40:25.819Z,1.70
2023-03-27T20:43:02.619Z,2.33
2023-03-27T20:45:31.829Z,2.10
2023-03-27T20:48:04.067Z,3.53
2023-03-27T20:50:34.959Z,3.20
2023-03-27T20:53:04.168Z,3.37
2023-03-27T20:55:34.588Z,2.47
2023-03-27T20:58:06.327Z,1.73
2023-03-27T21:00:35.472Z,2.70
2023-03-27T21:03:03.226Z,2.70
2023-03-27T21:05:30.737Z,2.67
2023-03-27T21:07:59.794Z,1.90
2023-03-27T21:10:27.279Z,2.30
2023-03-27T21:12:56.513Z,1.80
2023-03-27T21:15:24.187Z,2.30
2023-03-27T21:17:52.999Z,2.77
2023-03-27T21:20:20.728Z,1.80
2023-03-27T21:22:52.489Z,2.07
2023-03-27T21:25:20.841Z,2.70
2023-03-27T21:27:48.347Z,1.80
2023-03-27T21:30:16.673Z,2.53
2023-03-27T21:32:45.518Z,2.50
2023-03-27T21:35:14.395Z,2.30
2023-03-27T21:37:41.841Z,1.77
2023-03-27T21:40:10.219Z,3.00
2023-03-27T21:42:37.694Z,3.33
2023-03-27T21:45:06.120Z,3.23
2023-03-27T21:47:46.770Z,3.17
2023-03-27T21:50:16.375Z,3.50
2023-03-27T21:52:43.817Z,2.20
2023-03-27T21:55:11.265Z,2.13
2023-03-27T21:57:38.781Z,2.10
2023-03-27T22:00:08.063Z,2.60
2023-03-27T22:02:35.721Z,2.87
2023-03-27T22:05:03.425Z,2.93
2023-03-27T22:07:32.268Z,2.83
2023-03-27T22:09:59.701Z,4.63
2023-03-27T22:12:27.371Z,2.43
2023-03-27T22:14:54.794Z,3.70
2023-03-27T22:17:22.356Z,2.43
2023-03-27T22:19:49.856Z,4.13
2023-03-27T22:22:17.285Z,3.50
2023-03-27T22:24:46.117Z,2.60
2023-03-27T22:27:13.597Z,1.90
2023-03-27T22:29:41.059Z,1.80
2023-03-27T22:32:08.921Z,2.80
2023-03-27T22:34:36.340Z,3.63
2023-03-27T22:37:04.161Z,4.30
2023-03-27T22:39:31.603Z,2.80
2023-03-27T22:42:00.459Z,2.70
2023-03-27T22:44:30.651Z,4.10
2023-03-27T22:46:58.197Z,2.97
2023-03-27T22:49:25.701Z,3.17
2023-03-27T22:51:53.470Z,3.27
2023-03-27T22:54:20.945Z,3.27
2023-03-27T22:56:48.698Z,2.73
2023-03-27T22:59:18.024Z,3.00
2023-03-27T23:01:45.697Z,4.47
2023-03-27T23:04:13.128Z,3.43
2023-03-27T23:06:40.587Z,4.63
2023-03-27T23:09:09.550Z,3.43
2023-03-27T23:11:37.208Z,4.03
2023-03-27T23:14:04.690Z,4.40
2023-03-27T23:16:33.624Z,4.37
2023-03-27T23:19:01.127Z,3.33
2023-03-27T23:21:28.648Z,3.10
2023-03-27T23:23:56.232Z,2.87
2023-03-27T23:26:23.910Z,4.93
2023-03-27T23:28:51.452Z,4.00
2023-03-27T23:31:20.699Z,3.70
2023-03-27T23:33:51.447Z,2.67
2023-03-27T23:36:20.868Z,3.90
2023-03-27T23:38:48.435Z,5.37
2023-03-27T23:41:16.902Z,5.30
2023-03-27T23:43:44.782Z,6.80
2023-03-27T23:46:12.371Z,2.30
2023-03-27T23:48:41.728Z,4.57
2023-03-27T23:51:12.238Z,3.20
2023-03-27T23:53:40.624Z,3.90
2023-03-27T23:56:09.210Z,3.27
2023-03-27T23:58:37.397Z,4.90
